Time;durP1;ratioP1;P1;durP2;ratioP2;P2;SDS_P1;SDS_P2;PMS_P1;PMS_P2;Temp;Humidity;BMP_temperature;BMP_pressure;BME280_temperature;BME280_humidity;BME280_pressure;Samples;Min_cycle;Max_cycle;Signal;HPM_P1;HPM_P2
2022/12/27 00:00:24;;;;;;;4.10;2.15;;;;;;;;;;4934385;29;20039;-62
2022/12/27 00:02:51;;;;;;;3.13;1.77;;;;;;;;;;4934428;29;20103;-59
2022/12/27 00:05:17;;;;;;;3.72;1.85;;;;;;;;;;4933911;29;20067;-62
2022/12/27 00:07:46;;;;;;;7.57;1.88;;;;;;;;;;4934344;29;20070;-61
2022/12/27 00:10:13;;;;;;;5.30;2.10;;;;;;;;;;4917778;29;20048;-62
2022/12/27 00:12:42;;;;;;;3.92;1.50;;;;;;;;;;4934156;29;20048;-60
2022/12/27 00:15:09;;;;;;;7.88;2.28;;;;;;;;;;4933646;29;20043;-62
2022/12/27 00:17:35;;;;;;;3.50;1.80;;;;;;;;;;4934303;29;20127;-61
2022/12/27 00:20:02;;;;;;;3.67;1.60;;;;;;;;;;4917176;29;20044;-62
2022/12/27 00:22:36;;;;;;;2.80;1.70;;;;;;;;;;4936906;29;20055;-61
2022/12/27 00:25:03;;;;;;;3.10;1.60;;;;;;;;;;4937172;29;20492;-60
2022/12/27 00:27:29;;;;;;;4.05;1.33;;;;;;;;;;4920837;29;20043;-61
2022/12/27 00:29:56;;;;;;;4.65;1.83;;;;;;;;;;4905443;29;20047;-61
2022/12/27 00:32:22;;;;;;;3.22;1.50;;;;;;;;;;4937874;29;20492;-61
2022/12/27 00:34:49;;;;;;;4.95;1.52;;;;;;;;;;4937551;29;20051;-61
2022/12/27 00:37:15;;;;;;;4.10;2.28;;;;;;;;;;4937614;29;20040;-60
2022/12/27 00:39:41;;;;;;;7.70;1.50;;;;;;;;;;4937927;29;20415;-61
2022/12/27 00:42:08;;;;;;;6.05;1.75;;;;;;;;;;4937903;29;20067;-61
2022/12/27 00:44:35;;;;;;;7.22;2.53;;;;;;;;;;4938098;29;20074;-61
2022/12/27 00:47:01;;;;;;;3.95;1.75;;;;;;;;;;4919845;29;20478;-61
2022/12/27 00:49:28;;;;;;;3.90;1.80;;;;;;;;;;4920589;29;20511;-62
2022/12/27 00:51:54;;;;;;;4.15;2.33;;;;;;;;;;4937280;29;20118;-62
2022/12/27 00:54:20;;;;;;;3.10;1.55;;;;;;;;;;4937154;29;20401;-61
2022/12/27 00:56:47;;;;;;;8.05;1.90;;;;;;;;;;4936583;29;20036;-60
2022/12/27 00:59:13;;;;;;;4.65;2.10;;;;;;;;;;4920303;29;20066;-61
2022/12/27 01:01:40;;;;;;;10.93;2.72;;;;;;;;;;4936997;29;20052;-61
2022/12/27 01:04:07;;;;;;;4.82;1.60;;;;;;;;;;4936947;29;20464;-61
2022/12/27 01:06:34;;;;;;;4.95;2.20;;;;;;;;;;4936413;29;20130;-61
2022/12/27 01:09:01;;;;;;;7.25;2.10;;;;;;;;;;4936960;29;20044;-60
2022/12/27 01:11:28;;;;;;;6.05;1.65;;;;;;;;;;4936875;29;20062;-59
2022/12/27 01:13:55;;;;;;;7.75;2.08;;;;;;;;;;4936904;29;20083;-63
2022/12/27 01:16:23;;;;;;;4.22;1.52;;;;;;;;;;4936273;29;20405;-61
2022/12/27 01:18:50;;;;;;;8.18;1.63;;;;;;;;;;4904115;29;20163;-61
2022/12/27 01:21:17;;;;;;;6.72;1.70;;;;;;;;;;4919891;29;20044;-60
2022/12/27 01:23:44;;;;;;;9.57;2.55;;;;;;;;;;4936585;29;20436;-61
2022/12/27 01:26:12;;;;;;;7.45;1.80;;;;;;;;;;4919498;29;20681;-60
2022/12/27 01:28:39;;;;;;;6.03;1.77;;;;;;;;;;4919877;29;20044;-60
2022/12/27 01:31:06;;;;;;;6.03;1.80;;;;;;;;;;4936411;29;20052;-60
2022/12/27 01:33:33;;;;;;;6.07;2.30;;;;;;;;;;4935115;29;20039;-60
2022/12/27 01:36:08;;;;;;;7.20;1.83;;;;;;;;;;4935673;29;20098;-60
2022/12/27 01:38:35;;;;;;;5.75;1.92;;;;;;;;;;4936221;29;20489;-61
2022/12/27 01:42:50;;;;;;;4.65;1.77;;;;;;;;;;4936489;29;20052;-62
2022/12/27 01:43:47;;;;;;;6.13;1.80;;;;;;;;;;4919270;29;20052;-62
2022/12/27 01:46:14;;;;;;;7.68;1.85;;;;;;;;;;4918589;29;20044;-62
2022/12/27 01:48:41;;;;;;;5.22;1.98;;;;;;;;;;4919377;29;20043;-62
2022/12/27 01:51:12;;;;;;;4.03;1.92;;;;;;;;;;4936185;29;20334;-62
2022/12/27 01:53:48;;;;;;;5.97;1.65;;;;;;;;;;4936313;29;20043;-59
2022/12/27 01:56:24;;;;;;;7.72;1.80;;;;;;;;;;4935550;29;20495;-60
2022/12/27 01:58:58;;;;;;;4.28;1.70;;;;;;;;;;4936066;29;20125;-60
2022/12/27 02:01:27;;;;;;;4.72;1.42;;;;;;;;;;4935790;29;20032;-60
2022/12/27 02:04:14;;;;;;;3.95;1.67;;;;;;;;;;4918795;29;20048;-61
2022/12/27 02:06:40;;;;;;;6.03;1.58;;;;;;;;;;4935450;29;20048;-59
2022/12/27 02:09:17;;;;;;;3.38;1.50;;;;;;;;;;4935998;29;20134;-60
2022/12/27 02:11:51;;;;;;;2.83;1.30;;;;;;;;;;4935737;29;20488;-59
2022/12/27 02:14:19;;;;;;;7.90;1.80;;;;;;;;;;4919305;29;20052;-59
2022/12/27 02:16:53;;;;;;;3.42;1.80;;;;;;;;;;4919212;29;20118;-59
2022/12/27 02:19:51;;;;;;;6.03;1.40;;;;;;;;;;4935933;29;20103;-60
2022/12/27 02:22:21;;;;;;;4.63;1.88;;;;;;;;;;4893972;29;20106;-60
2022/12/27 02:24:53;;;;;;;3.35;1.75;;;;;;;;;;4935544;29;20055;-61
2022/12/27 02:27:25;;;;;;;7.20;2.20;;;;;;;;;;4935493;29;20077;-61
2022/12/27 02:29:56;;;;;;;5.40;1.67;;;;;;;;;;4935918;29;20050;-61
2022/12/27 02:32:41;;;;;;;5.10;1.60;;;;;;;;;;4935628;29;20420;-61
2022/12/27 02:35:08;;;;;;;7.82;1.90;;;;;;;;;;4935142;29;20461;-61
2022/12/27 02:37:37;;;;;;;5.63;2.08;;;;;;;;;;4935427;29;20456;-61
2022/12/27 02:54:17;;;;;;;4.75;1.52;;;;;;;;;;4919529;29;20500;-61
2022/12/27 02:59:34;;;;;;;9.32;1.90;;;;;;;;;;4919066;29;20056;-61
2022/12/27 03:04:52;;;;;;;5.38;1.63;;;;;;;;;;4935238;29;20039;-61
2022/12/27 03:07:38;;;;;;;4.20;1.60;;;;;;;;;;4917821;29;20054;-61
2022/12/27 03:16:19;;;;;;;15.85;2.83;;;;;;;;;;4938468;29;20052;-58
2022/12/27 03:18:58;;;;;;;3.83;1.93;;;;;;;;;;4939307;29;20070;-58
2022/12/27 03:27:16;;;;;;;4.57;1.77;;;;;;;;;;4934376;29;20407;-59
2022/12/27 03:33:11;;;;;;;9.45;1.50;;;;;;;;;;4934653;29;20059;-59
2022/12/27 03:35:37;;;;;;;3.97;1.80;;;;;;;;;;4933659;29;20043;-59
2022/12/27 03:38:04;;;;;;;3.78;1.60;;;;;;;;;;4934912;29;20505;-59
2022/12/27 03:40:36;;;;;;;9.02;1.80;;;;;;;;;;4935538;29;20048;-61
2022/12/27 03:43:14;;;;;;;4.68;1.88;;;;;;;;;;4935533;29;20095;-59
2022/12/27 03:48:35;;;;;;;5.25;1.77;;;;;;;;;;4934699;29;20044;-59
2022/12/27 03:51:03;;;;;;;5.53;1.80;;;;;;;;;;4934935;29;20103;-60
2022/12/27 03:53:38;;;;;;;8.15;2.00;;;;;;;;;;4934875;29;20046;-60
2022/12/27 03:56:05;;;;;;;4.88;2.03;;;;;;;;;;4934257;29;20051;-60
2022/12/27 03:58:31;;;;;;;4.28;1.98;;;;;;;;;;4949905;23;20415;-61
2022/12/27 04:00:58;;;;;;;5.25;2.10;;;;;;;;;;4937774;29;20181;-62
2022/12/27 04:03:24;;;;;;;3.70;1.98;;;;;;;;;;4921274;29;20059;-61
2022/12/27 04:05:51;;;;;;;6.30;1.73;;;;;;;;;;4937611;29;20123;-62
2022/12/27 04:35:50;;;;;;;4.72;2.03;;;;;;;;;;4937173;29;20043;-61
2022/12/27 04:38:16;;;;;;;5.20;1.92;;;;;;;;;;4937770;29;20040;-61
2022/12/27 04:57:21;;;;;;;10.77;3.45;;;;;;;;;;4937033;29;20043;-62
2022/12/27 05:02:53;;;;;;;;;;;;;;;;;;5216473;23;20056;-59
2022/12/27 05:05:19;;;;;;;5.18;1.90;;;;;;;;;;4918258;29;20033;-59
2022/12/27 05:16:18;;;;;;;7.60;2.42;;;;;;;;;;4897614;29;20056;-60
2022/12/27 05:18:44;;;;;;;6.57;2.40;;;;;;;;;;4867573;29;20052;-60
2022/12/27 05:21:11;;;;;;;14.30;2.65;;;;;;;;;;4899666;29;20401;-62
2022/12/27 05:26:31;;;;;;;6.60;2.65;;;;;;;;;;4899169;29;20058;-59
2022/12/27 05:28:57;;;;;;;7.55;2.50;;;;;;;;;;4899519;29;20052;-60
2022/12/27 05:31:25;;;;;;;2.72;2.10;;;;;;;;;;4899435;29;20148;-60
2022/12/27 05:33:51;;;;;;;3.28;2.13;;;;;;;;;;4899162;29;20049;-60
2022/12/27 05:36:18;;;;;;;5.72;2.63;;;;;;;;;;4898637;29;20126;-60
2022/12/27 05:38:45;;;;;;;5.07;2.22;;;;;;;;;;4899367;29;20048;-60
2022/12/27 05:41:11;;;;;;;10.27;2.97;;;;;;;;;;4899204;29;20052;-63
2022/12/27 05:43:38;;;;;;;9.07;2.80;;;;;;;;;;4899116;29;20244;-61
2022/12/27 05:46:05;;;;;;;7.03;2.72;;;;;;;;;;4898377;29;20052;-61
2022/12/27 05:48:32;;;;;;;8.27;2.85;;;;;;;;;;4898703;29;20498;-61
2022/12/27 05:51:03;;;;;;;5.07;2.58;;;;;;;;;;4898761;29;20100;-61
2022/12/27 05:53:29;;;;;;;7.75;2.72;;;;;;;;;;4898459;29;20052;-61
2022/12/27 05:55:56;;;;;;;8.18;3.33;;;;;;;;;;4898172;29;20044;-61
2022/12/27 05:58:23;;;;;;;6.53;3.30;;;;;;;;;;4898767;29;20489;-61
2022/12/27 06:00:49;;;;;;;7.35;3.03;;;;;;;;;;4881764;29;20111;-62
2022/12/27 06:03:16;;;;;;;8.07;4.13;;;;;;;;;;4898221;29;20581;-60
2022/12/27 06:05:42;;;;;;;9.05;3.63;;;;;;;;;;4897815;29;20044;-60
2022/12/27 06:08:09;;;;;;;12.63;4.65;;;;;;;;;;4881841;29;20144;-60
2022/12/27 06:10:36;;;;;;;6.05;3.28;;;;;;;;;;4898694;29;20383;-61
2022/12/27 06:13:03;;;;;;;8.80;4.20;;;;;;;;;;4898065;29;20097;-61
2022/12/27 06:15:29;;;;;;;10.00;4.55;;;;;;;;;;4897908;29;20044;-61
2022/12/27 06:17:57;;;;;;;11.07;5.28;;;;;;;;;;4881271;29;20110;-61
2022/12/27 06:20:23;;;;;;;12.85;4.78;;;;;;;;;;4897483;29;20503;-62
2022/12/27 06:22:49;;;;;;;10.48;5.05;;;;;;;;;;4898103;29;20104;-61
2022/12/27 06:25:16;;;;;;;10.45;5.53;;;;;;;;;;4880781;29;20060;-61
2022/12/27 06:27:43;;;;;;;7.53;5.10;;;;;;;;;;4898274;29;20201;-62
2022/12/27 06:30:11;;;;;;;11.18;5.72;;;;;;;;;;4898070;29;20056;-61
2022/12/27 06:32:37;;;;;;;9.55;5.35;;;;;;;;;;4898260;29;20043;-61
2022/12/27 06:35:04;;;;;;;13.65;6.72;;;;;;;;;;4900618;29;20044;-61
2022/12/27 06:37:30;;;;;;;10.10;5.30;;;;;;;;;;4909108;29;20048;-60
2022/12/27 06:39:57;;;;;;;7.53;5.00;;;;;;;;;;4906574;29;20044;-60
2022/12/27 06:42:23;;;;;;;16.48;6.47;;;;;;;;;;4897999;29;20056;-60
2022/12/27 06:44:49;;;;;;;12.90;6.25;;;;;;;;;;4898286;29;20745;-60
2022/12/27 06:47:16;;;;;;;10.15;6.32;;;;;;;;;;4897396;29;20129;-61
2022/12/27 06:49:43;;;;;;;11.77;6.20;;;;;;;;;;4897996;29;20045;-59
2022/12/27 06:52:09;;;;;;;11.45;6.80;;;;;;;;;;4897542;29;20059;-59
2022/12/27 06:54:36;;;;;;;10.93;6.53;;;;;;;;;;4897472;29;20045;-59
2022/12/27 06:57:02;;;;;;;11.20;7.00;;;;;;;;;;4896944;29;20040;-59
2022/12/27 06:59:29;;;;;;;10.07;6.40;;;;;;;;;;4897820;29;20056;-58
2022/12/27 07:01:55;;;;;;;13.52;6.30;;;;;;;;;;4895853;29;20053;-58
2022/12/27 07:04:22;;;;;;;11.90;7.53;;;;;;;;;;4897343;29;20052;-59
2022/12/27 07:06:48;;;;;;;10.82;6.68;;;;;;;;;;4895663;29;20053;-59
2022/12/27 07:09:15;;;;;;;10.63;6.40;;;;;;;;;;4897291;29;20044;-59
2022/12/27 07:11:41;;;;;;;14.07;7.10;;;;;;;;;;4897192;29;20050;-59
2022/12/27 07:14:08;;;;;;;11.95;7.05;;;;;;;;;;4897290;29;20040;-59
2022/12/27 07:16:34;;;;;;;11.00;7.10;;;;;;;;;;4896633;29;20068;-59
2022/12/27 07:19:01;;;;;;;13.73;7.00;;;;;;;;;;4897120;29;20499;-58
2022/12/27 07:21:28;;;;;;;13.75;7.22;;;;;;;;;;4880527;29;20077;-58
2022/12/27 07:23:54;;;;;;;13.02;6.90;;;;;;;;;;4897060;29;20049;-58
2022/12/27 07:26:22;;;;;;;9.45;6.57;;;;;;;;;;4896521;29;20052;-58
2022/12/27 07:28:48;;;;;;;13.52;7.50;;;;;;;;;;4897039;29;20041;-59
2022/12/27 07:31:16;;;;;;;12.52;7.25;;;;;;;;;;4897425;29;20108;-58
2022/12/27 07:33:43;;;;;;;15.20;7.25;;;;;;;;;;4896871;29;20096;-58
2022/12/27 07:36:15;;;;;;;10.40;7.13;;;;;;;;;;4896449;29;20047;-58
2022/12/27 07:38:42;;;;;;;12.75;7.93;;;;;;;;;;4896970;29;20413;-58
2022/12/27 07:41:09;;;;;;;9.63;6.97;;;;;;;;;;4897199;29;20046;-62
2022/12/27 07:43:35;;;;;;;10.52;6.88;;;;;;;;;;4897078;29;20524;-60
2022/12/27 07:46:07;;;;;;;11.45;6.90;;;;;;;;;;4879616;29;20088;-60
2022/12/27 07:48:33;;;;;;;13.15;6.60;;;;;;;;;;4880272;29;20049;-61
2022/12/27 07:51:00;;;;;;;13.40;7.03;;;;;;;;;;4896931;29;20052;-61
2022/12/27 07:53:27;;;;;;;13.95;7.13;;;;;;;;;;4896699;29;20051;-61
2022/12/27 07:55:53;;;;;;;11.02;6.05;;;;;;;;;;4896539;29;20409;-62
2022/12/27 07:58:20;;;;;;;10.02;6.40;;;;;;;;;;4896994;29;20579;-62
2022/12/27 08:00:47;;;;;;;11.25;6.22;;;;;;;;;;4897054;29;20048;-63
2022/12/27 08:03:14;;;;;;;10.43;5.72;;;;;;;;;;4896929;29;20045;-63
2022/12/27 08:05:45;;;;;;;12.30;6.28;;;;;;;;;;4879672;29;20056;-62
2022/12/27 08:08:13;;;;;;;14.00;6.85;;;;;;;;;;4896847;29;20045;-63
2022/12/27 08:10:39;;;;;;;13.05;5.85;;;;;;;;;;4896840;29;20044;-62
2022/12/27 08:13:06;;;;;;;9.25;6.22;;;;;;;;;;4879781;29;20140;-62
2022/12/27 08:15:32;;;;;;;11.13;5.97;;;;;;;;;;4896240;29;20049;-61
2022/12/27 08:17:59;;;;;;;16.98;10.38;;;;;;;;;;4896407;29;20045;-62
2022/12/27 08:20:26;;;;;;;11.35;7.50;;;;;;;;;;4896852;29;20037;-59
2022/12/27 08:22:52;;;;;;;10.88;6.15;;;;;;;;;;4896644;29;20052;-62
2022/12/27 08:25:19;;;;;;;10.55;6.65;;;;;;;;;;4896499;29;20060;-62
2022/12/27 08:27:46;;;;;;;11.82;5.50;;;;;;;;;;4896636;29;20095;-62
2022/12/27 08:30:12;;;;;;;11.07;5.88;;;;;;;;;;4896771;29;20458;-63
2022/12/27 08:32:39;;;;;;;11.25;6.30;;;;;;;;;;4896830;29;20056;-60
2022/12/27 08:35:05;;;;;;;7.47;5.78;;;;;;;;;;4896068;29;20045;-61
2022/12/27 08:37:52;;;;;;;8.30;5.18;;;;;;;;;;4896590;29;20096;-62
2022/12/27 08:40:18;;;;;;;12.30;5.82;;;;;;;;;;4895404;29;20096;-62
2022/12/27 08:42:45;;;;;;;7.55;4.85;;;;;;;;;;4897642;29;20123;-62
2022/12/27 08:45:12;;;;;;;11.30;5.40;;;;;;;;;;4899327;29;20504;-61
2022/12/27 08:47:38;;;;;;;10.82;5.70;;;;;;;;;;4883155;29;20052;-62
2022/12/27 08:50:06;;;;;;;9.32;5.30;;;;;;;;;;4899918;29;20049;-60
2022/12/27 08:52:32;;;;;;;10.75;5.30;;;;;;;;;;4882983;29;20060;-60
2022/12/27 08:54:59;;;;;;;12.30;6.88;;;;;;;;;;4899422;29;20488;-60
2022/12/27 08:57:25;;;;;;;14.23;6.35;;;;;;;;;;4899884;29;20040;-60
2022/12/27 08:59:52;;;;;;;11.48;6.10;;;;;;;;;;4899705;29;20520;-60
2022/12/27 09:02:18;;;;;;;8.75;5.75;;;;;;;;;;4899411;29;20093;-61
2022/12/27 09:04:47;;;;;;;9.43;5.30;;;;;;;;;;4867717;29;20096;-61
2022/12/27 09:07:13;;;;;;;8.98;5.00;;;;;;;;;;4899162;29;20052;-60
2022/12/27 09:09:40;;;;;;;11.07;4.97;;;;;;;;;;4883098;29;20592;-61
2022/12/27 09:12:07;;;;;;;11.75;5.32;;;;;;;;;;4899518;29;20123;-62
2022/12/27 09:14:34;;;;;;;11.63;5.75;;;;;;;;;;4882769;29;20048;-62
2022/12/27 09:17:01;;;;;;;8.13;4.68;;;;;;;;;;4898925;29;20044;-62
2022/12/27 09:19:27;;;;;;;9.48;5.28;;;;;;;;;;4882551;29;20056;-62
2022/12/27 09:21:54;;;;;;;13.77;5.75;;;;;;;;;;4882590;29;20118;-62
2022/12/27 09:24:21;;;;;;;10.57;5.72;;;;;;;;;;4899409;29;20071;-62
2022/12/27 09:26:47;;;;;;;12.90;5.07;;;;;;;;;;4898653;29;20569;-62
2022/12/27 09:29:14;;;;;;;11.77;5.63;;;;;;;;;;4899055;29;20116;-63
2022/12/27 09:31:41;;;;;;;11.15;4.53;;;;;;;;;;4898933;29;20071;-60
2022/12/27 09:34:09;;;;;;;9.40;4.68;;;;;;;;;;4899189;29;20041;-62
2022/12/27 09:36:37;;;;;;;10.15;4.22;;;;;;;;;;4898652;29;20053;-62
2022/12/27 09:39:03;;;;;;;7.90;4.85;;;;;;;;;;4882251;29;20045;-60
2022/12/27 09:41:30;;;;;;;10.95;5.82;;;;;;;;;;4898898;29;20049;-60
2022/12/27 09:44:30;;;;;;;8.98;4.82;;;;;;;;;;4898926;29;20147;-63
2022/12/27 09:47:00;;;;;;;10.52;4.45;;;;;;;;;;4898429;29;20051;-61
2022/12/27 09:49:37;;;;;;;12.40;4.45;;;;;;;;;;4882082;29;20506;-61
2022/12/27 09:52:10;;;;;;;11.05;4.30;;;;;;;;;;4898814;29;20516;-62
2022/12/27 09:54:43;;;;;;;6.32;3.92;;;;;;;;;;4897643;29;20072;-61
2022/12/27 09:57:16;;;;;;;8.00;3.42;;;;;;;;;;4898084;29;20418;-62
2022/12/27 09:59:47;;;;;;;7.45;3.72;;;;;;;;;;4898696;29;20075;-61
2022/12/27 10:02:18;;;;;;;6.47;3.50;;;;;;;;;;4898192;29;20506;-61
2022/12/27 10:04:45;;;;;;;11.73;3.45;;;;;;;;;;4898405;29;20410;-62
2022/12/27 10:07:41;;;;;;;10.55;3.30;;;;;;;;;;4898314;29;20052;-62
2022/12/27 10:10:22;;;;;;;6.70;3.78;;;;;;;;;;4898790;29;20048;-62
2022/12/27 10:13:04;;;;;;;7.28;3.47;;;;;;;;;;4898655;29;20486;-61
2022/12/27 10:15:39;;;;;;;6.85;3.30;;;;;;;;;;4897737;29;20151;-63
2022/12/27 10:18:17;;;;;;;12.68;4.22;;;;;;;;;;4898340;29;20044;-61
2022/12/27 10:20:53;;;;;;;8.35;3.72;;;;;;;;;;4898395;29;20060;-60
2022/12/27 10:23:22;;;;;;;6.45;3.15;;;;;;;;;;4898285;29;20045;-59
2022/12/27 10:25:53;;;;;;;7.72;3.60;;;;;;;;;;4880892;29;20052;-60
2022/12/27 10:28:24;;;;;;;10.10;3.38;;;;;;;;;;4898241;29;20048;-61
2022/12/27 10:30:51;;;;;;;7.63;3.72;;;;;;;;;;4881338;29;20119;-61
2022/12/27 10:33:27;;;;;;;13.35;3.80;;;;;;;;;;4907276;29;20421;-59
2022/12/27 10:35:55;;;;;;;7.60;3.85;;;;;;;;;;4893198;29;20049;-59
2022/12/27 10:38:23;;;;;;;9.88;3.88;;;;;;;;;;4899079;29;20053;-60
2022/12/27 10:40:56;;;;;;;7.90;3.63;;;;;;;;;;4897923;29;20048;-61
2022/12/27 10:43:25;;;;;;;10.02;3.95;;;;;;;;;;4881043;29;20048;-62
2022/12/27 10:45:52;;;;;;;9.20;4.10;;;;;;;;;;4897548;29;20062;-61
2022/12/27 10:48:23;;;;;;;10.27;4.25;;;;;;;;;;4898025;29;20405;-61
2022/12/27 10:50:53;;;;;;;5.78;3.20;;;;;;;;;;4897838;29;20071;-60
2022/12/27 10:53:28;;;;;;;8.80;3.97;;;;;;;;;;4880937;29;20052;-61
2022/12/27 10:56:13;;;;;;;8.93;4.40;;;;;;;;;;4897556;29;20359;-63
2022/12/27 10:58:41;;;;;;;9.70;4.20;;;;;;;;;;4897911;29;20041;-59
2022/12/27 11:01:34;;;;;;;12.18;4.03;;;;;;;;;;4898384;29;20454;-61
2022/12/27 11:04:08;;;;;;;5.43;3.22;;;;;;;;;;4879685;29;20158;-61
2022/12/27 11:06:40;;;;;;;9.52;4.05;;;;;;;;;;4897640;29;20040;-61
2022/12/27 11:09:25;;;;;;;7.20;3.78;;;;;;;;;;4897764;29;20051;-61
2022/12/27 11:12:13;;;;;;;10.82;3.78;;;;;;;;;;4897405;29;20056;-61
2022/12/27 11:14:52;;;;;;;10.30;3.92;;;;;;;;;;4897652;29;20052;-61
2022/12/27 11:17:20;;;;;;;12.15;3.38;;;;;;;;;;4897029;29;20516;-60
2022/12/27 11:19:46;;;;;;;10.25;4.00;;;;;;;;;;4897647;29;20048;-61
2022/12/27 11:22:13;;;;;;;9.18;3.45;;;;;;;;;;4897193;29;20041;-61
2022/12/27 11:24:44;;;;;;;11.02;4.97;;;;;;;;;;4897076;29;20044;-61
2022/12/27 11:27:19;;;;;;;7.97;3.28;;;;;;;;;;4896926;29;20541;-61
2022/12/27 11:29:46;;;;;;;7.78;2.90;;;;;;;;;;4864987;29;20083;-61
2022/12/27 11:32:14;;;;;;;10.63;2.88;;;;;;;;;;4880669;29;20528;-62
2022/12/27 11:34:42;;;;;;;9.85;3.50;;;;;;;;;;4880347;29;20722;-62
2022/12/27 11:37:16;;;;;;;5.45;2.47;;;;;;;;;;4879902;29;20053;-62
2022/12/27 11:39:43;;;;;;;7.10;2.47;;;;;;;;;;4897013;29;20045;-61
2022/12/27 11:42:20;;;;;;;5.68;2.67;;;;;;;;;;4896949;29;20053;-61
2022/12/27 11:44:53;;;;;;;6.57;2.33;;;;;;;;;;4880610;29;20048;-61
2022/12/27 11:47:26;;;;;;;6.22;2.25;;;;;;;;;;4880202;29;20418;-61
2022/12/27 11:50:12;;;;;;;6.00;2.60;;;;;;;;;;4897268;29;20049;-60
2022/12/27 11:52:47;;;;;;;7.70;2.53;;;;;;;;;;4880568;29;20044;-61
2022/12/27 11:55:13;;;;;;;5.72;2.20;;;;;;;;;;4896659;29;20413;-60
2022/12/27 11:57:59;;;;;;;7.95;2.55;;;;;;;;;;4897075;29;20044;-60
2022/12/27 12:00:31;;;;;;;7.75;2.47;;;;;;;;;;4880189;29;20484;-60
2022/12/27 12:03:12;;;;;;;5.85;2.90;;;;;;;;;;4895675;29;20044;-61
2022/12/27 12:05:50;;;;;;;7.18;2.55;;;;;;;;;;4896549;29;20041;-61
2022/12/27 12:08:26;;;;;;;12.98;4.00;;;;;;;;;;4864909;29;20048;-62
2022/12/27 12:11:00;;;;;;;6.57;3.15;;;;;;;;;;4896969;29;20052;-60
2022/12/27 12:13:36;;;;;;;7.70;2.53;;;;;;;;;;4897155;29;20052;-60
2022/12/27 12:16:03;;;;;;;6.03;3.00;;;;;;;;;;4894960;29;20100;-62
2022/12/27 12:18:48;;;;;;;5.10;2.78;;;;;;;;;;4898976;29;20041;-59
2022/12/27 12:21:29;;;;;;;8.38;3.15;;;;;;;;;;4900468;29;20036;-60
2022/12/27 12:23:56;;;;;;;11.18;3.20;;;;;;;;;;4900423;29;20044;-61
2022/12/27 12:26:24;;;;;;;8.15;3.67;;;;;;;;;;4899915;29;20077;-62
2022/12/27 12:29:09;;;;;;;6.78;3.50;;;;;;;;;;4900516;29;20045;-60
2022/12/27 12:32:02;;;;;;;10.32;3.25;;;;;;;;;;4900202;29;20390;-60
2022/12/27 12:34:40;;;;;;;8.98;3.08;;;;;;;;;;4900321;29;20041;-60
2022/12/27 12:37:26;;;;;;;10.30;4.03;;;;;;;;;;4899703;29;20045;-61
2022/12/27 12:39:58;;;;;;;9.82;4.80;;;;;;;;;;4900157;29;20045;-61
2022/12/27 12:42:30;;;;;;;6.30;2.95;;;;;;;;;;4883422;29;20459;-61
2022/12/27 12:45:16;;;;;;;5.72;2.90;;;;;;;;;;4899880;29;20052;-61
2022/12/27 12:47:53;;;;;;;6.65;3.05;;;;;;;;;;4900150;29;20057;-62
2022/12/27 12:50:30;;;;;;;11.00;2.95;;;;;;;;;;4921034;23;20126;-61
2022/12/27 12:53:03;;;;;;;9.38;2.75;;;;;;;;;;4920607;29;20048;-61
2022/12/27 12:55:35;;;;;;;8.65;3.10;;;;;;;;;;4920051;29;20043;-61
2022/12/27 12:58:07;;;;;;;6.72;3.17;;;;;;;;;;4920964;29;20040;-61
2022/12/27 13:00:52;;;;;;;7.50;2.97;;;;;;;;;;4904748;29;20055;-62
2022/12/27 13:03:28;;;;;;;5.45;3.60;;;;;;;;;;4937425;29;20063;-62
2022/12/27 13:05:54;;;;;;;5.15;3.13;;;;;;;;;;4919683;29;20048;-62
2022/12/27 13:08:34;;;;;;;8.35;2.83;;;;;;;;;;4937178;29;20055;-63
2022/12/27 13:11:11;;;;;;;8.45;3.65;;;;;;;;;;4937112;29;20058;-63
2022/12/27 13:13:46;;;;;;;7.05;2.70;;;;;;;;;;4937153;29;20060;-61
2022/12/27 13:16:16;;;;;;;7.22;3.72;;;;;;;;;;4936547;29;20404;-61
2022/12/27 13:18:57;;;;;;;8.95;2.85;;;;;;;;;;4936807;29;20484;-61
2022/12/27 13:21:24;;;;;;;8.60;3.53;;;;;;;;;;4937050;29;20047;-61
2022/12/27 13:23:50;;;;;;;10.90;5.18;;;;;;;;;;4936811;29;20036;-61
2022/12/27 13:26:35;;;;;;;10.05;3.83;;;;;;;;;;4919508;29;20044;-61
2022/12/27 13:29:14;;;;;;;8.63;3.30;;;;;;;;;;4936637;29;20055;-61
2022/12/27 13:31:44;;;;;;;10.52;3.90;;;;;;;;;;4936979;29;20066;-62
2022/12/27 13:34:21;;;;;;;9.38;4.22;;;;;;;;;;4936755;29;20054;-61
2022/12/27 13:37:06;;;;;;;12.57;4.20;;;;;;;;;;4936232;29;20116;-61
2022/12/27 13:39:58;;;;;;;14.70;3.83;;;;;;;;;;4936510;29;20091;-62
2022/12/27 13:42:51;;;;;;;7.43;3.42;;;;;;;;;;4919547;29;20051;-62
2022/12/27 13:45:29;;;;;;;6.45;2.50;;;;;;;;;;4915209;29;20060;-62
2022/12/27 13:47:56;;;;;;;5.90;2.55;;;;;;;;;;4936522;29;20499;-62
2022/12/27 13:50:41;;;;;;;7.75;2.83;;;;;;;;;;4936240;29;20040;-62
2022/12/27 13:53:10;;;;;;;11.30;5.05;;;;;;;;;;4919575;29;20059;-64
2022/12/27 13:55:40;;;;;;;11.15;5.20;;;;;;;;;;4936029;29;20050;-62
2022/12/27 13:58:21;;;;;;;8.35;3.55;;;;;;;;;;4936307;29;20048;-62
2022/12/27 14:01:07;;;;;;;13.30;5.47;;;;;;;;;;4936416;29;20039;-62
2022/12/27 14:03:47;;;;;;;12.43;3.67;;;;;;;;;;4919254;29;20047;-62
2022/12/27 14:06:25;;;;;;;11.15;3.33;;;;;;;;;;4935639;29;20519;-62
2022/12/27 14:09:04;;;;;;;6.55;3.00;;;;;;;;;;4936645;29;20047;-62
2022/12/27 14:11:31;;;;;;;7.40;4.15;;;;;;;;;;4919578;29;20048;-63
2022/12/27 14:13:57;;;;;;;6.00;3.35;;;;;;;;;;4936106;29;20044;-62
2022/12/27 14:16:56;;;;;;;6.63;2.30;;;;;;;;;;4935565;29;20099;-62
2022/12/27 14:19:43;;;;;;;7.88;4.00;;;;;;;;;;4885195;29;20047;-63
2022/12/27 14:22:09;;;;;;;7.68;2.50;;;;;;;;;;4919144;29;20047;-64
2022/12/27 14:24:54;;;;;;;8.52;2.60;;;;;;;;;;4935927;29;20044;-62
2022/12/27 14:27:30;;;;;;;5.90;2.65;;;;;;;;;;4918864;29;20095;-63
2022/12/27 14:30:15;;;;;;;6.32;2.38;;;;;;;;;;4919107;29;20441;-63
2022/12/27 14:33:00;;;;;;;9.77;2.97;;;;;;;;;;4918832;29;20116;-63
2022/12/27 14:35:47;;;;;;;9.63;3.80;;;;;;;;;;4935064;29;20043;-63
2022/12/27 14:38:22;;;;;;;9.60;3.38;;;;;;;;;;4887513;29;20060;-63
2022/12/27 14:41:08;;;;;;;6.85;2.80;;;;;;;;;;4935233;29;20052;-63
2022/12/27 14:44:00;;;;;;;4.35;2.67;;;;;;;;;;4935813;29;20051;-63
2022/12/27 14:46:39;;;;;;;6.57;3.00;;;;;;;;;;4899399;29;20051;-63
2022/12/27 14:49:05;;;;;;;8.60;2.92;;;;;;;;;;4935500;29;20109;-63
2022/12/27 14:51:38;;;;;;;12.50;2.78;;;;;;;;;;4935315;29;20043;-63
2022/12/27 14:54:30;;;;;;;8.98;3.15;;;;;;;;;;4935561;29;20067;-62
2022/12/27 14:57:15;;;;;;;7.60;2.72;;;;;;;;;;4934636;29;20064;-63
2022/12/27 15:00:01;;;;;;;6.65;2.72;;;;;;;;;;4935473;29;20509;-62
2022/12/27 15:02:33;;;;;;;8.93;3.00;;;;;;;;;;4918099;29;20488;-62
2022/12/27 15:05:08;;;;;;;8.10;3.20;;;;;;;;;;4918186;29;20043;-62
2022/12/27 15:07:53;;;;;;;7.13;2.70;;;;;;;;;;4935252;29;20493;-62
2022/12/27 15:10:41;;;;;;;7.60;2.58;;;;;;;;;;4935032;29;20102;-62
2022/12/27 15:13:17;;;;;;;5.82;2.45;;;;;;;;;;4935316;29;20043;-62
2022/12/27 15:15:47;;;;;;;4.38;2.45;;;;;;;;;;4934782;29;20432;-62
2022/12/27 15:18:20;;;;;;;6.47;2.90;;;;;;;;;;4934989;29;20518;-62
2022/12/27 15:20:46;;;;;;;8.38;3.05;;;;;;;;;;4935099;29;20051;-63
2022/12/27 15:23:32;;;;;;;7.70;3.90;;;;;;;;;;4934871;29;20043;-62
2022/12/27 15:26:17;;;;;;;6.53;2.45;;;;;;;;;;4934408;29;20042;-61
2022/12/27 15:28:56;;;;;;;5.30;3.00;;;;;;;;;;4934946;29;20496;-61
2022/12/27 15:31:31;;;;;;;5.95;3.40;;;;;;;;;;4917772;29;20047;-60
2022/12/27 15:34:11;;;;;;;8.88;3.65;;;;;;;;;;4917850;29;20390;-61
2022/12/27 15:36:45;;;;;;;7.25;2.88;;;;;;;;;;4934272;29;20412;-61
2022/12/27 15:39:30;;;;;;;11.50;3.95;;;;;;;;;;4934799;29;20416;-61
2022/12/27 15:42:12;;;;;;;12.65;3.80;;;;;;;;;;4917669;29;20044;-61
2022/12/27 15:44:47;;;;;;;12.90;4.38;;;;;;;;;;4934735;29;20043;-61
2022/12/27 15:47:26;;;;;;;8.13;4.25;;;;;;;;;;4934099;29;20052;-61
2022/12/27 15:50:08;;;;;;;9.93;4.63;;;;;;;;;;4934588;29;20420;-60
2022/12/27 15:52:47;;;;;;;7.57;4.43;;;;;;;;;;4936188;29;20124;-61
2022/12/27 15:55:16;;;;;;;14.98;7.38;;;;;;;;;;4920930;29;20559;-60
2022/12/27 15:57:52;;;;;;;11.73;7.18;;;;;;;;;;4938959;29;20042;-60
2022/12/27 16:00:21;;;;;;;18.67;8.32;;;;;;;;;;4905843;29;20040;-61
2022/12/27 16:02:48;;;;;;;13.13;7.40;;;;;;;;;;4938342;29;20039;-61
2022/12/27 16:05:18;;;;;;;9.90;5.13;;;;;;;;;;4937808;29;20122;-61
2022/12/27 16:07:45;;;;;;;6.85;3.97;;;;;;;;;;4938547;29;20573;-61
2022/12/27 16:10:34;;;;;;;9.18;5.28;;;;;;;;;;4938442;29;20106;-61
2022/12/27 16:13:00;;;;;;;8.25;4.80;;;;;;;;;;4938610;29;20489;-61
2022/12/27 16:15:32;;;;;;;14.77;7.28;;;;;;;;;;4938477;29;20055;-60
2022/12/27 16:18:00;;;;;;;13.75;6.40;;;;;;;;;;4940200;29;20040;-60
2022/12/27 16:20:27;;;;;;;13.80;6.53;;;;;;;;;;4938978;29;20050;-60
2022/12/27 16:23:00;;;;;;;13.02;6.95;;;;;;;;;;4940083;29;20496;-60
2022/12/27 16:25:35;;;;;;;15.02;5.70;;;;;;;;;;4943338;29;20044;-61
2022/12/27 16:28:03;;;;;;;11.98;4.90;;;;;;;;;;4943809;29;20047;-61
2022/12/27 16:30:33;;;;;;;9.23;4.40;;;;;;;;;;4927965;29;20047;-62
2022/12/27 16:32:59;;;;;;;9.90;4.45;;;;;;;;;;4927360;29;20475;-62
2022/12/27 16:35:26;;;;;;;12.63;5.35;;;;;;;;;;4944890;29;20146;-61
2022/12/27 16:37:53;;;;;;;15.52;6.07;;;;;;;;;;4928740;29;20044;-61
2022/12/27 16:40:25;;;;;;;8.98;3.75;;;;;;;;;;4946466;29;20143;-62